Time;durP1;ratioP1;P1;durP2;ratioP2;P2;SDS_P1;SDS_P2;PMS_P1;PMS_P2;Temp;Humidity;BMP_temperature;BMP_pressure;BME280_temperature;BME280_humidity;BME280_pressure;Samples;Min_cycle;Max_cycle;Signal;HPM_P1;HPM_P2
2023/03/08 00:01:00;;;;;;;118.75;55.67;;;7.00;99.90;;;;;;5057090;28;20036;-65
2023/03/08 00:03:26;;;;;;;118.90;56.58;;;7.00;99.90;;;;;;5056750;28;20033;-65
2023/03/08 00:05:52;;;;;;;130.95;60.67;;;6.90;99.90;;;;;;5057009;28;20047;-65
2023/03/08 00:08:18;;;;;;;153.63;62.85;;;6.90;99.90;;;;;;5056807;28;20037;-65
2023/03/08 00:10:44;;;;;;;187.05;75.25;;;6.90;99.90;;;;;;5056881;28;20021;-65
2023/03/08 00:13:10;;;;;;;423.60;147.95;;;6.90;99.90;;;;;;5056911;28;20082;-65
2023/03/08 00:15:37;;;;;;;490.45;166.90;;;7.00;99.90;;;;;;5056931;28;20025;-65
2023/03/08 00:18:04;;;;;;;482.92;161.63;;;7.00;99.90;;;;;;5056852;28;20039;-65
2023/03/08 00:20:30;;;;;;;512.58;171.60;;;6.90;99.90;;;;;;5056517;28;20033;-65
2023/03/08 00:22:56;;;;;;;344.52;122.82;;;7.00;99.90;;;;;;5056732;28;20043;-65
2023/03/08 00:25:23;;;;;;;244.05;93.32;;;7.00;99.90;;;;;;5056310;28;20414;-65
2023/03/08 00:27:49;;;;;;;217.45;83.03;;;7.00;99.90;;;;;;5056534;28;20035;-65
2023/03/08 00:30:15;;;;;;;218.68;82.75;;;7.10;99.90;;;;;;5056318;28;20031;-65
2023/03/08 00:32:41;;;;;;;218.68;84.57;;;7.10;99.90;;;;;;5038475;28;20040;-65
2023/03/08 00:35:08;;;;;;;276.63;94.53;;;7.10;99.90;;;;;;5056608;28;20024;-65
2023/03/08 00:37:34;;;;;;;244.13;87.45;;;7.00;99.90;;;;;;5056183;28;20533;-65
2023/03/08 00:40:00;;;;;;;209.38;78.45;;;7.00;99.90;;;;;;5022791;28;20041;-65
2023/03/08 00:42:26;;;;;;;190.57;74.80;;;7.00;99.90;;;;;;5018343;28;20092;-65
2023/03/08 00:44:52;;;;;;;148.57;60.92;;;7.00;99.90;;;;;;5017928;28;20037;-65
2023/03/08 00:47:18;;;;;;;149.35;60.70;;;7.00;99.90;;;;;;5035420;28;20026;-65
2023/03/08 00:49:44;;;;;;;151.65;59.05;;;7.10;99.90;;;;;;5036391;28;20026;-65
2023/03/08 00:52:11;;;;;;;136.25;56.10;;;7.10;99.90;;;;;;5050017;28;20032;-65
2023/03/08 00:54:37;;;;;;;122.25;53.40;;;7.10;99.90;;;;;;5056042;28;20028;-65
2023/03/08 00:57:03;;;;;;;129.23;55.28;;;7.10;99.90;;;;;;5038197;28;20106;-65
2023/03/08 00:59:31;;;;;;;157.07;64.13;;;7.20;99.90;;;;;;5037772;28;20037;-65
2023/03/08 01:01:57;;;;;;;145.30;60.33;;;7.10;99.90;;;;;;5037719;28;20036;-65
2023/03/08 01:04:23;;;;;;;132.88;56.25;;;7.10;99.90;;;;;;5055861;28;20424;-65
2023/03/08 01:06:50;;;;;;;107.13;48.97;;;7.10;99.90;;;;;;5037832;28;20620;-65
2023/03/08 01:09:16;;;;;;;96.03;46.45;;;7.20;99.90;;;;;;5037760;28;20033;-65
2023/03/08 01:11:43;;;;;;;105.47;48.42;;;7.10;99.90;;;;;;5037880;28;20033;-65
2023/03/08 01:14:09;;;;;;;89.47;43.42;;;7.10;99.90;;;;;;5037705;28;20029;-65
2023/03/08 01:16:35;;;;;;;94.90;44.20;;;7.00;99.90;;;;;;5037554;28;20025;-65
2023/03/08 01:19:03;;;;;;;103.95;46.90;;;6.80;99.90;;;;;;5055660;28;20039;-65
2023/03/08 01:21:30;;;;;;;98.25;46.25;;;6.60;99.90;;;;;;5055262;28;20406;-65
2023/03/08 01:23:57;;;;;;;101.97;46.83;;;6.70;99.90;;;;;;5055527;28;20360;-65
2023/03/08 01:26:25;;;;;;;104.82;46.65;;;6.60;99.90;;;;;;5055213;28;20036;-65
2023/03/08 01:28:55;;;;;;;103.97;46.63;;;6.60;99.90;;;;;;5055724;28;20028;-65
2023/03/08 01:31:23;;;;;;;100.90;45.40;;;6.60;99.90;;;;;;5055286;28;20087;-65
2023/03/08 01:33:51;;;;;;;100.03;46.60;;;6.60;99.90;;;;;;5054140;28;20035;-65
2023/03/08 01:36:19;;;;;;;92.25;42.78;;;6.60;99.90;;;;;;5037118;28;20493;-65
2023/03/08 01:38:46;;;;;;;86.43;41.33;;;6.50;99.90;;;;;;5049723;28;20408;-65
2023/03/08 01:41:20;;;;;;;98.57;46.67;;;6.60;99.90;;;;;;5035074;28;20037;-66
2023/03/08 01:43:46;;;;;;;125.22;56.47;;;6.70;99.90;;;;;;4994579;28;20074;-65
2023/03/08 01:46:27;;;;;;;111.68;50.90;;;6.50;99.90;;;;;;4994457;28;20084;-65
2023/03/08 01:49:14;;;;;;;105.60;46.53;;;6.40;99.90;;;;;;4994599;28;20392;-65
2023/03/08 01:51:43;;;;;;;115.07;52.38;;;6.40;99.90;;;;;;5020438;28;20069;-65
2023/03/08 01:54:35;;;;;;;103.93;49.22;;;6.40;99.90;;;;;;5014069;28;20061;-65
2023/03/08 01:57:05;;;;;;;104.07;45.80;;;6.30;99.90;;;;;;5013514;28;20065;-65
2023/03/08 01:59:33;;;;;;;102.82;45.40;;;6.10;99.90;;;;;;5013850;28;20042;-65
2023/03/08 02:02:01;;;;;;;115.00;51.00;;;6.20;99.90;;;;;;5013804;28;20074;-65
2023/03/08 02:04:29;;;;;;;133.43;60.20;;;6.20;99.90;;;;;;5015003;28;20128;-65
2023/03/08 02:06:56;;;;;;;123.13;57.90;;;6.20;99.90;;;;;;5013659;28;20287;-65
2023/03/08 02:09:24;;;;;;;131.10;60.70;;;6.20;99.90;;;;;;5014123;28;20026;-65
2023/03/08 02:11:52;;;;;;;124.03;57.53;;;6.30;99.90;;;;;;5014336;28;20033;-65
2023/03/08 02:14:18;;;;;;;128.70;58.85;;;6.30;99.90;;;;;;5015771;28;20029;-65
2023/03/08 02:16:48;;;;;;;116.72;54.45;;;6.30;99.90;;;;;;5013897;28;20076;-65
2023/03/08 02:19:22;;;;;;;102.90;48.65;;;6.30;99.90;;;;;;5013697;28;20499;-65
2023/03/08 02:21:48;;;;;;;108.82;48.88;;;6.20;99.90;;;;;;5013554;28;20147;-65
2023/03/08 02:24:20;;;;;;;89.07;44.50;;;6.20;99.90;;;;;;5013178;28;20057;-65
2023/03/08 02:26:49;;;;;;;106.70;50.20;;;6.20;99.90;;;;;;5014734;28;20034;-65
2023/03/08 02:29:15;;;;;;;108.53;50.75;;;6.20;99.90;;;;;;5013166;28;20117;-65
2023/03/08 02:31:41;;;;;;;101.35;50.78;;;6.10;99.90;;;;;;5014712;28;20121;-65
2023/03/08 02:34:07;;;;;;;110.47;49.90;;;6.20;99.90;;;;;;5014823;28;20380;-65
2023/03/08 02:36:33;;;;;;;116.03;56.05;;;6.20;99.90;;;;;;5013158;28;20041;-65
2023/03/08 02:38:59;;;;;;;119.07;55.97;;;6.20;99.90;;;;;;5014563;28;20468;-65
2023/03/08 02:41:27;;;;;;;121.18;54.55;;;6.20;99.90;;;;;;5015258;28;20029;-65
2023/03/08 02:43:53;;;;;;;116.63;52.70;;;6.30;99.90;;;;;;5033045;28;20040;-65
2023/03/08 02:46:19;;;;;;;97.53;46.38;;;6.30;99.90;;;;;;5034194;28;20516;-65
2023/03/08 02:48:45;;;;;;;94.07;43.92;;;6.40;99.90;;;;;;5034184;28;20033;-65
2023/03/08 02:51:11;;;;;;;90.07;43.72;;;6.40;99.90;;;;;;5039828;28;20009;-65
2023/03/08 02:53:37;;;;;;;96.80;47.67;;;6.40;99.90;;;;;;5054024;28;20028;-65
2023/03/08 02:56:03;;;;;;;113.00;51.95;;;6.40;99.90;;;;;;5036127;28;20029;-65
2023/03/08 02:58:29;;;;;;;115.50;50.53;;;6.50;99.90;;;;;;5035981;28;20474;-65
2023/03/08 03:00:55;;;;;;;108.35;50.33;;;6.50;99.90;;;;;;5036212;28;20033;-65
2023/03/08 03:03:21;;;;;;;118.70;53.42;;;6.50;99.90;;;;;;5035942;28;20116;-65
2023/03/08 03:05:50;;;;;;;134.05;57.45;;;6.60;99.90;;;;;;5053895;28;20466;-65
2023/03/08 03:08:21;;;;;;;167.95;63.55;;;6.50;99.90;;;;;;5035703;28;20029;-66
2023/03/08 03:10:47;;;;;;;224.52;79.82;;;6.60;99.90;;;;;;5057879;28;20102;-65
2023/03/08 03:13:14;;;;;;;230.30;77.88;;;6.60;99.90;;;;;;5057880;28;20078;-65
2023/03/08 03:15:40;;;;;;;211.63;71.45;;;6.60;99.90;;;;;;5040128;28;20025;-65
2023/03/08 03:18:07;;;;;;;215.88;74.28;;;6.60;99.90;;;;;;5039926;28;20029;-65
2023/03/08 03:20:33;;;;;;;221.93;79.60;;;6.60;99.90;;;;;;5057694;28;20086;-65
2023/03/08 03:22:59;;;;;;;249.88;98.03;;;6.60;99.90;;;;;;5057804;28;20037;-65
2023/03/08 03:25:38;;;;;;;245.23;97.22;;;6.60;99.90;;;;;;5039852;28;20036;-65
2023/03/08 03:28:07;;;;;;;168.38;66.35;;;6.60;99.90;;;;;;5057748;28;20475;-65
2023/03/08 03:30:34;;;;;;;159.85;66.72;;;6.60;99.90;;;;;;5039652;28;20048;-65
2023/03/08 03:33:01;;;;;;;149.30;63.30;;;6.60;99.90;;;;;;5039714;28;20029;-65
2023/03/08 03:35:30;;;;;;;121.57;54.47;;;6.70;99.90;;;;;;5039509;28;20029;-65
2023/03/08 03:37:56;;;;;;;111.38;48.72;;;6.70;99.90;;;;;;5039549;28;20032;-65
2023/03/08 03:40:22;;;;;;;96.05;41.97;;;6.70;99.90;;;;;;5039268;28;20402;-65
2023/03/08 03:42:53;;;;;;;93.32;44.20;;;6.70;99.90;;;;;;5039403;28;20055;-65
2023/03/08 03:45:19;;;;;;;98.32;44.80;;;6.80;99.90;;;;;;5039276;28;20494;-65
2023/03/08 03:47:46;;;;;;;100.30;45.08;;;6.70;99.90;;;;;;5055985;28;20398;-65
2023/03/08 03:50:13;;;;;;;83.07;42.35;;;6.80;99.90;;;;;;5057144;28;20029;-65
2023/03/08 03:53:05;;;;;;;85.95;41.15;;;6.70;99.90;;;;;;5033136;28;20108;-65
2023/03/08 03:55:31;;;;;;;79.82;38.58;;;6.70;99.90;;;;;;5019189;28;20029;-65
2023/03/08 03:57:57;;;;;;;75.25;37.17;;;6.70;99.90;;;;;;5019481;28;20040;-65
2023/03/08 04:00:23;;;;;;;77.90;38.20;;;6.80;99.90;;;;;;5019246;28;20029;-65
2023/03/08 04:03:00;;;;;;;75.25;38.88;;;6.80;99.90;;;;;;5019236;28;20040;-65
2023/03/08 04:05:28;;;;;;;91.78;42.55;;;6.80;99.90;;;;;;5019017;28;20116;-65
2023/03/08 04:07:55;;;;;;;91.22;45.22;;;6.80;99.90;;;;;;5036992;28;20430;-65
2023/03/08 04:10:25;;;;;;;88.07;42.50;;;6.80;99.90;;;;;;5019062;28;20083;-65
2023/03/08 04:12:52;;;;;;;111.20;48.38;;;6.80;99.90;;;;;;5019158;28;20029;-65
2023/03/08 04:15:20;;;;;;;110.47;48.67;;;6.70;99.90;;;;;;5018575;28;20045;-65
2023/03/08 04:17:46;;;;;;;116.00;52.47;;;6.70;99.90;;;;;;5036917;28;20061;-65
2023/03/08 04:20:13;;;;;;;101.60;45.30;;;6.60;99.90;;;;;;5018424;28;20065;-65
2023/03/08 04:22:43;;;;;;;;;;;6.60;99.90;;;;;;5037218;28;20128;-65
2023/03/08 04:25:18;;;;;;;97.13;42.38;;;6.60;99.90;;;;;;5035206;28;20389;-65
2023/03/08 04:27:51;;;;;;;145.52;60.03;;;6.60;99.90;;;;;;5018612;28;20044;-65
2023/03/08 04:30:19;;;;;;;146.23;60.53;;;6.60;99.90;;;;;;5018676;28;20026;-65
2023/03/08 04:32:45;;;;;;;131.43;55.38;;;6.70;99.90;;;;;;5018642;28;20108;-65
2023/03/08 04:35:12;;;;;;;158.32;66.10;;;6.70;99.90;;;;;;5018647;28;20048;-65
2023/03/08 04:37:39;;;;;;;177.35;75.28;;;6.70;99.90;;;;;;5036561;28;20533;-65
2023/03/08 04:40:11;;;;;;;185.23;80.05;;;6.70;99.90;;;;;;5053316;28;20048;-65
2023/03/08 04:42:44;;;;;;;170.50;72.85;;;6.70;99.90;;;;;;5038346;28;20063;-65
2023/03/08 04:45:14;;;;;;;146.35;63.35;;;6.60;99.90;;;;;;5038308;28;20040;-65
2023/03/08 04:47:40;;;;;;;95.22;47.33;;;6.70;99.90;;;;;;5056170;28;20040;-65
2023/03/08 04:50:07;;;;;;;89.35;45.17;;;6.60;99.90;;;;;;5038386;28;20078;-65
2023/03/08 04:52:33;;;;;;;85.85;44.17;;;6.70;99.90;;;;;;5054593;28;20127;-65
2023/03/08 04:54:59;;;;;;;98.80;47.58;;;6.70;99.90;;;;;;5038135;28;20565;-65
2023/03/08 04:57:26;;;;;;;94.50;45.78;;;6.80;99.90;;;;;;5038055;28;20029;-65
2023/03/08 04:59:55;;;;;;;87.72;46.25;;;6.70;99.90;;;;;;5056266;28;20029;-65
2023/03/08 05:02:22;;;;;;;157.30;72.40;;;6.70;99.90;;;;;;5037869;28;20044;-65
2023/03/08 05:04:49;;;;;;;145.45;65.28;;;6.70;99.90;;;;;;5056284;28;20053;-65
2023/03/08 05:07:15;;;;;;;148.95;70.35;;;6.70;99.90;;;;;;5037706;28;20470;-65
2023/03/08 05:09:42;;;;;;;145.82;73.97;;;6.70;99.90;;;;;;5037702;28;20025;-65
2023/03/08 05:12:08;;;;;;;163.57;80.50;;;6.80;99.90;;;;;;5037951;28;20025;-65
2023/03/08 05:14:48;;;;;;;168.65;77.57;;;6.80;99.90;;;;;;5037831;28;20123;-65
2023/03/08 05:17:14;;;;;;;243.30;104.30;;;6.80;99.90;;;;;;5055351;28;20064;-65
2023/03/08 05:19:40;;;;;;;204.90;85.63;;;6.80;99.90;;;;;;5037666;28;20028;-65
2023/03/08 05:22:07;;;;;;;157.63;68.95;;;6.80;99.90;;;;;;5037700;28;20063;-65
2023/03/08 05:24:40;;;;;;;154.63;63.53;;;6.80;99.90;;;;;;5037732;28;20040;-65
2023/03/08 05:27:08;;;;;;;144.88;62.97;;;6.80;99.90;;;;;;5037645;28;20474;-65
2023/03/08 05:29:36;;;;;;;171.23;69.45;;;6.70;99.90;;;;;;5037317;28;20021;-65
2023/03/08 05:32:03;;;;;;;133.70;56.78;;;6.80;99.90;;;;;;5036741;28;20117;-65
2023/03/08 05:34:31;;;;;;;123.28;53.20;;;6.80;99.90;;;;;;5053850;28;20589;-65
2023/03/08 05:36:58;;;;;;;104.82;47.03;;;6.80;99.90;;;;;;5055390;28;20112;-65
2023/03/08 05:39:25;;;;;;;98.38;44.08;;;6.70;99.90;;;;;;5026376;28;20033;-65
2023/03/08 05:42:11;;;;;;;109.65;45.72;;;6.80;99.90;;;;;;5017351;28;20069;-65
2023/03/08 05:44:39;;;;;;;106.93;47.30;;;6.80;99.90;;;;;;5017451;28;20049;-65
2023/03/08 05:47:07;;;;;;;117.22;50.30;;;6.80;99.90;;;;;;5035143;28;20030;-65
2023/03/08 05:49:35;;;;;;;127.57;57.05;;;6.80;99.90;;;;;;5017483;28;20209;-65
2023/03/08 05:52:03;;;;;;;133.25;64.45;;;6.80;99.90;;;;;;5029939;28;20055;-65
2023/03/08 05:54:29;;;;;;;136.98;59.40;;;6.90;99.90;;;;;;5036705;28;20446;-65
2023/03/08 05:56:59;;;;;;;143.25;59.03;;;6.90;99.90;;;;;;5037173;28;20037;-65
2023/03/08 05:59:26;;;;;;;122.60;53.67;;;6.90;99.90;;;;;;5054552;28;20043;-65
2023/03/08 06:01:54;;;;;;;132.23;56.85;;;6.90;99.90;;;;;;5036934;28;20033;-65
2023/03/08 06:04:32;;;;;;;119.07;53.30;;;7.00;99.90;;;;;;5036816;28;20040;-65
2023/03/08 06:06:58;;;;;;;131.27;56.42;;;7.00;99.90;;;;;;5054482;28;20060;-65
2023/03/08 06:09:31;;;;;;;120.25;52.88;;;7.20;99.90;;;;;;5036658;28;20071;-65
2023/03/08 06:11:58;;;;;;;114.43;49.10;;;7.60;99.90;;;;;;5036657;28;20028;-65
2023/03/08 06:14:24;;;;;;;111.63;48.20;;;8.20;99.90;;;;;;5036304;28;20036;-65
2023/03/08 06:16:51;;;;;;;116.32;49.03;;;8.60;99.90;;;;;;5036518;28;20033;-65
2023/03/08 06:19:20;;;;;;;109.32;49.00;;;8.90;99.90;;;;;;5036356;28;20403;-65
2023/03/08 06:21:49;;;;;;;113.82;52.38;;;9.70;99.90;;;;;;5036329;28;20035;-65
2023/03/08 06:24:16;;;;;;;131.27;55.38;;;10.00;99.90;;;;;;5036279;28;20457;-65
2023/03/08 06:26:42;;;;;;;150.45;58.13;;;10.30;99.90;;;;;;5037246;28;20029;-65
2023/03/08 06:29:08;;;;;;;121.22;53.95;;;10.70;99.90;;;;;;5055251;28;20028;-65
2023/03/08 06:31:34;;;;;;;126.78;55.25;;;11.00;99.90;;;;;;5036168;28;20055;-65
2023/03/08 06:34:02;;;;;;;138.68;55.92;;;11.40;99.90;;;;;;5047578;28;20029;-65
2023/03/08 06:36:28;;;;;;;128.88;57.58;;;11.80;99.90;;;;;;5056860;28;20028;-66
2023/03/08 06:38:54;;;;;;;108.25;50.03;;;12.40;99.90;;;;;;5068389;28;20047;-65
2023/03/08 06:41:20;;;;;;;88.90;45.58;;;12.60;99.90;;;;;;5051908;28;20028;-65
2023/03/08 06:43:50;;;;;;;130.40;57.10;;;12.70;99.90;;;;;;5036970;28;20039;-66
2023/03/08 06:46:18;;;;;;;116.65;57.22;;;12.90;99.90;;;;;;5036639;28;20036;-65
2023/03/08 06:48:45;;;;;;;117.28;55.30;;;13.40;99.90;;;;;;5051832;28;20032;-65
2023/03/08 06:51:12;;;;;;;120.38;52.78;;;13.70;99.90;;;;;;5030616;28;20029;-66
2023/03/08 06:53:42;;;;;;;136.95;51.97;;;13.90;99.90;;;;;;5017023;28;20032;-66
2023/03/08 06:56:12;;;;;;;94.88;46.85;;;14.10;99.90;;;;;;5016817;28;20041;-66
2023/03/08 06:58:42;;;;;;;108.32;50.45;;;14.40;99.90;;;;;;5017058;28;20115;-66
2023/03/08 07:01:09;;;;;;;109.60;49.42;;;14.50;99.90;;;;;;5035524;28;20128;-66
2023/03/08 07:03:36;;;;;;;105.03;48.78;;;14.30;99.90;;;;;;5042504;28;20021;-66
2023/03/08 07:06:05;;;;;;;111.30;48.90;;;14.30;99.90;;;;;;5045011;28;20033;-66
2023/03/08 07:08:31;;;;;;;103.07;46.60;;;14.60;99.90;;;;;;5042499;28;20063;-66
2023/03/08 07:10:58;;;;;;;106.03;48.35;;;15.10;99.90;;;;;;5041119;28;20017;-66
2023/03/08 07:13:24;;;;;;;109.95;48.15;;;14.80;99.90;;;;;;5036934;28;20033;-66
2023/03/08 07:15:50;;;;;;;110.75;51.28;;;15.40;99.90;;;;;;5052388;28;20032;-67
2023/03/08 07:18:17;;;;;;;115.28;54.45;;;15.80;99.90;;;;;;5054204;28;20472;-66
2023/03/08 07:20:44;;;;;;;127.90;58.47;;;16.30;99.90;;;;;;5073488;28;20032;-67
2023/03/08 07:23:09;;;;;;;126.47;57.88;;;16.20;99.90;;;;;;5072145;28;20077;-66
2023/03/08 07:25:40;;;;;;;108.38;52.45;;;16.50;99.90;;;;;;5053109;28;20037;-67
2023/03/08 07:28:06;;;;;;;122.63;54.03;;;16.70;99.90;;;;;;5054064;28;20025;-67
2023/03/08 07:30:32;;;;;;;98.40;47.63;;;17.10;99.90;;;;;;5053478;28;20087;-67
2023/03/08 07:32:58;;;;;;;99.50;46.85;;;17.50;99.90;;;;;;5053128;28;20360;-67
2023/03/08 07:35:24;;;;;;;104.30;46.17;;;18.00;99.90;;;;;;5053019;28;20048;-67
2023/03/08 07:37:50;;;;;;;70.43;33.33;;;18.30;99.90;;;;;;5053031;28;20040;-67
2023/03/08 07:40:17;;;;;;;79.05;37.40;;;18.70;99.90;;;;;;5053065;28;20036;-67
2023/03/08 07:42:43;;;;;;;67.50;34.45;;;18.90;99.90;;;;;;5052669;28;20100;-67
2023/03/08 07:45:29;;;;;;;65.57;32.38;;;19.40;99.90;;;;;;5041175;28;20043;-67
2023/03/08 07:47:55;;;;;;;51.65;24.48;;;19.40;99.90;;;;;;5053410;28;20025;-67
2023/03/08 07:50:21;;;;;;;81.22;40.10;;;19.20;99.90;;;;;;5053206;28;20025;-68
2023/03/08 07:52:48;;;;;;;68.47;32.63;;;19.20;99.90;;;;;;5052739;28;20029;-67
2023/03/08 07:55:15;;;;;;;64.70;32.25;;;19.50;99.90;;;;;;5054602;28;20078;-67
2023/03/08 07:57:40;;;;;;;48.47;21.52;;;19.80;99.90;;;;;;5057294;28;20387;-68
2023/03/08 08:00:07;;;;;;;59.75;25.98;;;19.90;99.90;;;;;;5044022;28;20034;-67
2023/03/08 08:02:38;;;;;;;53.22;22.90;;;19.80;99.90;;;;;;5057999;28;20120;-68
2023/03/08 08:05:04;;;;;;;21.92;9.63;;;19.30;99.90;;;;;;5057687;28;20032;-68
2023/03/08 08:07:31;;;;;;;31.70;12.85;;;19.20;99.90;;;;;;5057714;28;20460;-68
2023/03/08 08:09:57;;;;;;;88.72;30.08;;;18.70;99.90;;;;;;5057881;28;20036;-68
2023/03/08 08:12:23;;;;;;;38.08;20.63;;;17.70;99.90;;;;;;5057772;28;20029;-68
2023/03/08 08:14:52;;;;;;;45.60;19.30;;;17.50;99.90;;;;;;5057238;28;20021;-68
2023/03/08 08:17:21;;;;;;;54.10;27.88;;;17.60;99.90;;;;;;5055870;28;20033;-68
2023/03/08 08:19:50;;;;;;;50.53;27.10;;;17.60;99.90;;;;;;5055900;28;20028;-68
2023/03/08 08:22:16;;;;;;;53.08;25.05;;;17.40;99.90;;;;;;5056493;28;20142;-68
2023/03/08 08:24:42;;;;;;;47.88;23.77;;;17.20;99.90;;;;;;5067264;28;20021;-68
2023/03/08 08:27:08;;;;;;;56.33;23.77;;;17.00;99.90;;;;;;5049139;28;20033;-67
2023/03/08 08:29:36;;;;;;;85.38;24.63;;;17.10;99.90;;;;;;5056872;28;20021;-67
2023/03/08 08:32:03;;;;;;;59.28;17.80;;;17.00;99.90;;;;;;5056372;28;20370;-67
2023/03/08 08:34:29;;;;;;;44.85;17.90;;;17.30;99.90;;;;;;5056896;28;20029;-68
2023/03/08 08:36:55;;;;;;;27.00;11.73;;;17.60;99.90;;;;;;5057125;28;20051;-67
2023/03/08 08:39:21;;;;;;;27.98;10.57;;;18.60;99.90;;;;;;5056876;28;20031;-68
2023/03/08 08:41:50;;;;;;;19.00;10.23;;;19.40;99.90;;;;;;5054456;28;20652;-68
2023/03/08 08:44:16;;;;;;;18.88;8.98;;;19.90;99.90;;;;;;5047815;28;20028;-67
2023/03/08 08:46:42;;;;;;;22.98;10.95;;;20.60;99.90;;;;;;5073998;28;20020;-68
2023/03/08 08:49:09;;;;;;;36.65;13.30;;;20.30;99.90;;;;;;5076256;28;20021;-68
2023/03/08 08:51:38;;;;;;;36.45;11.50;;;20.40;99.90;;;;;;5065950;28;20033;-68
2023/03/08 08:54:04;;;;;;;17.17;7.55;;;21.00;99.90;;;;;;5055460;28;20152;-68
2023/03/08 08:56:30;;;;;;;28.60;8.70;;;21.30;99.90;;;;;;5056186;28;20559;-68
2023/03/08 08:59:00;;;;;;;18.25;7.40;;;21.50;99.90;;;;;;5035483;28;20033;-68
2023/03/08 09:01:31;;;;;;;20.95;7.70;;;21.80;99.90;;;;;;5050947;28;20110;-68
2023/03/08 09:03:59;;;;;;;33.10;9.63;;;22.00;99.90;;;;;;5055888;28;20029;-68
2023/03/08 09:06:26;;;;;;;10.20;5.55;;;22.50;99.90;;;;;;5054806;28;20406;-68
2023/03/08 09:08:55;;;;;;;12.57;4.80;;;22.90;99.90;;;;;;5055919;28;20496;-68
2023/03/08 09:11:22;;;;;;;11.93;5.10;;;23.00;99.90;;;;;;5047507;28;20032;-68
2023/03/08 09:13:48;;;;;;;9.23;3.95;;;22.60;99.90;;;;;;5056375;28;20021;-68
2023/03/08 09:16:26;;;;;;;12.05;3.30;;;22.80;99.90;;;;;;5056215;28;20027;-68
2023/03/08 09:18:56;;;;;;;8.35;3.17;;;22.80;99.90;;;;;;5055291;28;20040;-68
2023/03/08 09:21:24;;;;;;;10.27;3.95;;;21.30;99.90;;;;;;5046793;28;20076;-68
2023/03/08 09:23:50;;;;;;;12.40;4.93;;;21.80;99.90;;;;;;5043670;28;20079;-68
2023/03/08 09:26:17;;;;;;;12.80;5.20;;;22.60;99.90;;;;;;5054624;28;20083;-68
2023/03/08 09:28:43;;;;;;;11.80;4.78;;;23.10;99.90;;;;;;5052280;28;20394;-68
2023/03/08 09:31:15;;;;;;;11.30;5.25;;;23.30;99.90;;;;;;5037462;28;20087;-68
2023/03/08 09:33:43;;;;;;;14.85;5.43;;;23.40;99.90;;;;;;5050755;28;20038;-68
2023/03/08 09:36:09;;;;;;;11.70;5.38;;;23.70;99.90;;;;;;5042581;28;20347;-68
2023/03/08 09:38:36;;;;;;;9.35;4.80;;;23.80;99.90;;;;;;5039220;28;20025;-68
2023/03/08 09:41:25;;;;;;;8.85;4.43;;;23.70;99.90;;;;;;5054580;28;20029;-68
2023/03/08 09:44:07;;;;;;;18.10;5.47;;;23.50;99.90;;;;;;5054664;28;20041;-68
2023/03/08 09:46:38;;;;;;;8.15;4.18;;;23.60;99.90;;;;;;5051703;28;20537;-68
2023/03/08 09:49:11;;;;;;;9.90;4.53;;;23.90;99.90;;;;;;5035304;28;20029;-68
2023/03/08 09:51:43;;;;;;;10.75;4.57;;;23.60;99.90;;;;;;5039155;28;20022;-68
2023/03/08 09:54:14;;;;;;;6.63;3.58;;;23.90;99.90;;;;;;5065965;28;20020;-68
2023/03/08 09:56:50;;;;;;;8.30;3.55;;;23.80;99.90;;;;;;5075051;28;20522;-68
2023/03/08 09:59:31;;;;;;;15.63;4.38;;;23.90;99.90;;;;;;5068824;28;20048;-69
2023/03/08 10:01:57;;;;;;;;;;;23.50;99.90;;;;;;5050522;28;20025;-69
2023/03/08 10:04:48;;;;;;;7.10;2.85;;;23.00;99.90;;;;;;5062158;28;19927;-68
2023/03/08 10:07:39;;;;;;;8.82;3.25;;;23.00;99.90;;;;;;5053411;28;20033;-68
2023/03/08 10:10:04;;;;;;;;;;;22.70;99.90;;;;;;5047199;28;20029;-68
2023/03/08 10:13:12;;;;;;;6.70;2.58;;;22.20;99.90;;;;;;5059187;28;20274;-68
2023/03/08 10:15:42;;;;;;;5.90;2.40;;;21.70;99.90;;;;;;5013184;28;20040;-68
2023/03/08 10:18:35;;;;;;;6.82;3.20;;;21.30;99.90;;;;;;5034293;28;20036;-68
2023/03/08 10:21:02;;;;;;;7.47;2.63;;;21.30;99.90;;;;;;5052539;28;20037;-67
2023/03/08 10:23:34;;;;;;;15.10;4.75;;;21.20;99.90;;;;;;5054085;28;20033;-67
2023/03/08 10:26:01;;;;;;;21.42;4.70;;;21.20;99.90;;;;;;5044936;28;20038;-67
2023/03/08 10:28:27;;;;;;;13.43;4.07;;;21.50;99.90;;;;;;5054068;28;20039;-67
2023/03/08 10:31:00;;;;;;;11.80;3.05;;;22.00;99.90;;;;;;5054356;28;20077;-67
2023/03/08 10:33:32;;;;;;;4.75;2.25;;;22.20;99.90;;;;;;5054427;28;20032;-68
2023/03/08 10:36:01;;;;;;;5.40;2.03;;;21.80;99.90;;;;;;5053209;28;20087;-67
2023/03/08 10:38:33;;;;;;;5.63;2.15;;;21.20;99.90;;;;;;5054018;28;20406;-67
2023/03/08 10:41:19;;;;;;;13.88;3.17;;;21.20;99.90;;;;;;5052689;28;20025;-67
2023/03/08 10:43:48;;;;;;;6.57;2.80;;;21.20;99.90;;;;;;5033873;28;20046;-67
2023/03/08 10:46:17;;;;;;;13.45;3.20;;;21.00;99.90;;;;;;5045228;28;20056;-67
2023/03/08 10:48:44;;;;;;;11.00;3.00;;;20.40;99.90;;;;;;5066934;28;20031;-67
2023/03/08 10:51:25;;;;;;;20.05;4.32;;;20.60;99.90;;;;;;5067726;28;20040;-67
2023/03/08 10:53:56;;;;;;;13.20;3.75;;;21.00;99.90;;;;;;5053726;28;20430;-67
2023/03/08 10:56:33;;;;;;;10.77;4.07;;;21.50;99.90;;;;;;5053828;28;20433;-67
2023/03/08 10:58:59;;;;;;;9.85;3.85;;;21.90;99.90;;;;;;5053687;28;20025;-67
2023/03/08 11:01:31;;;;;;;4.93;1.92;;;22.00;99.90;;;;;;5053727;28;20033;-67
2023/03/08 11:04:04;;;;;;;8.55;2.90;;;21.90;99.90;;;;;;5053854;28;20430;-67
2023/03/08 11:06:33;;;;;;;4.30;2.47;;;22.00;99.90;;;;;;5052910;28;20175;-67
2023/03/08 11:09:02;;;;;;;7.95;2.10;;;22.00;99.90;;;;;;5053702;28;20025;-67
2023/03/08 11:11:40;;;;;;;6.78;2.40;;;21.40;99.90;;;;;;5056414;28;20474;-67
2023/03/08 11:14:09;;;;;;;12.80;3.40;;;21.10;99.90;;;;;;5060882;28;20029;-67
2023/03/08 11:16:54;;;;;;;7.35;3.10;;;21.20;99.90;;;;;;5036435;28;20056;-67
2023/03/08 11:19:43;;;;;;;7.60;2.58;;;21.20;99.90;;;;;;5052222;28;20067;-67
2023/03/08 11:22:27;;;;;;;8.05;3.33;;;21.00;99.90;;;;;;5033241;28;20037;-67
2023/03/08 11:25:08;;;;;;;7.95;3.30;;;20.60;99.90;;;;;;5045249;28;20374;-67
2023/03/08 11:28:06;;;;;;;10.27;3.42;;;20.40;99.90;;;;;;5052260;28;20029;-67
2023/03/08 11:30:42;;;;;;;16.58;4.97;;;20.30;99.90;;;;;;5054527;28;20561;-67
2023/03/08 11:33:26;;;;;;;12.10;3.80;;;20.20;99.90;;;;;;5057302;28;20024;-67
2023/03/08 11:36:16;;;;;;;4.82;2.20;;;19.80;99.90;;;;;;5054622;28;20458;-67
2023/03/08 11:38:46;;;;;;;5.30;3.08;;;19.50;99.90;;;;;;5043415;28;20037;-66
2023/03/08 11:41:30;;;;;;;5.93;3.13;;;19.50;99.90;;;;;;5054851;28;20035;-66
2023/03/08 11:44:30;;;;;;;10.80;4.43;;;19.30;99.90;;;;;;5056731;28;20040;-66
2023/03/08 11:47:12;;;;;;;8.05;2.88;;;19.20;99.90;;;;;;5050557;28;20533;-65
2023/03/08 11:49:53;;;;;;;6.07;2.78;;;19.20;99.90;;;;;;5037292;28;20017;-66
2023/03/08 11:52:35;;;;;;;7.25;2.63;;;19.10;99.90;;;;;;5051778;28;20025;-65
2023/03/08 11:55:25;;;;;;;8.00;2.88;;;19.00;99.90;;;;;;5055583;28;20486;-65
2023/03/08 11:57:58;;;;;;;10.85;3.58;;;18.90;99.90;;;;;;5057422;28;20040;-65
2023/03/08 12:00:35;;;;;;;8.05;2.20;;;18.80;99.90;;;;;;5057999;28;20094;-65
2023/03/08 12:03:20;;;;;;;7.43;2.75;;;18.50;99.90;;;;;;5057314;28;20155;-65
2023/03/08 12:06:03;;;;;;;5.40;2.00;;;18.40;99.90;;;;;;5056647;28;20052;-66
2023/03/08 12:08:45;;;;;;;7.43;2.78;;;18.30;99.90;;;;;;5038837;28;20546;-65
2023/03/08 12:11:52;;;;;;;14.43;4.20;;;18.30;99.90;;;;;;5056985;28;20082;-66
2023/03/08 12:14:29;;;;;;;10.90;3.60;;;18.20;99.90;;;;;;5057670;28;20443;-65
2023/03/08 12:17:27;;;;;;;9.88;3.00;;;18.10;99.90;;;;;;5057452;28;20021;-65
2023/03/08 12:19:53;;;;;;;9.60;3.75;;;18.10;99.90;;;;;;5046474;28;20025;-65
2023/03/08 12:22:19;;;;;;;7.72;3.13;;;18.00;99.90;;;;;;5056671;28;20021;-65
2023/03/08 12:24:47;;;;;;;9.15;3.65;;;18.10;99.90;;;;;;5056813;28;20250;-65
2023/03/08 12:27:22;;;;;;;6.95;2.60;;;18.10;99.90;;;;;;5056426;28;20021;-66
2023/03/08 12:29:57;;;;;;;11.63;3.03;;;18.00;99.90;;;;;;5056321;28;20025;-66
2023/03/08 12:32:24;;;;;;;25.70;4.82;;;18.00;99.90;;;;;;5056514;28;20091;-65
2023/03/08 12:35:22;;;;;;;9.52;3.42;;;17.90;99.90;;;;;;5056190;28;20060;-65
2023/03/08 12:38:03;;;;;;;6.15;2.50;;;18.00;99.90;;;;;;5032610;28;20121;-66
2023/03/08 12:40:37;;;;;;;16.52;4.38;;;17.90;99.90;;;;;;5053196;28;20029;-66
2023/03/08 12:43:05;;;;;;;8.88;2.92;;;18.20;99.90;;;;;;5035945;28;20452;-66
2023/03/08 12:45:34;;;;;;;9.82;2.78;;;18.10;99.90;;;;;;5037301;28;20041;-66
2023/03/08 12:48:08;;;;;;;15.68;4.75;;;18.10;99.90;;;;;;5048027;28;20033;-66